Date,TemperatureHighF,TemperatureAvgF,TemperatureLowF,DewpointHighF,DewpointAvgF,DewpointLowF,HumidityHigh,HumidityAvg,HumidityLow,PressureMaxIn,PressureMinIn,WindSpeedMaxMPH,WindSpeedAvgMPH,GustSpeedMaxMPH,PrecipitationSumIn
2013-4-1,78,63,51,62,55,51,99,78,41,30.05,29.88,12,1,12,0.01
2013-4-2,78,62,47,60,54,46,98,78,44,30.04,29.89,11,0,11,0.00
2013-4-3,64,58,51,62,56,48,98,93,85,29.97,29.71,19,3,20,2.04
2013-4-4,54,51,48,50,48,44,99,90,80,30.00,29.87,13,2,13,0.01
2013-4-5,68,54,46,51,46,42,93,77,48,30.14,30.00,17,3,18,0.00
2013-4-6,74,58,42,54,48,41,98,74,42,30.08,29.96,15,1,15,0.00
2013-4-7,77,65,56,61,57,53,94,77,50,30.01,29.89,13,1,13,0.00
2013-4-8,82,69,56,64,61,54,98,79,50,29.93,29.84,17,1,21,0.00
2013-4-9,85,75,67,71,69,64,96,81,59,29.91,29.82,24,1,24,0.00
2013-4-10,83,77,72,71,69,68,89,78,64,29.88,29.71,21,2,21,0.00
2013-4-11,75,63,50,71,60,49,97,89,73,29.80,29.61,21,2,21,0.57
2013-4-12,75,58,42,53,46,38,98,72,30,29.94,29.79,16,1,16,0.01
2013-4-13,80,63,47,56,49,42,95,65,29,29.98,29.81,15,0,15,0.00
2013-4-14,74,63,56,73,62,54,99,96,73,29.81,29.67,18,1,18,3.77
2013-4-15,80,71,62,79,70,61,97,97,97,29.89,29.75,9,0,10,0.02
2013-4-16,85,77,73,84,76,72,97,97,97,30.00,29.87,12,0,12,0.00
2013-4-17,85,77,72,84,76,72,97,97,97,30.00,29.84,18,0,18,0.00
2013-4-18,84,75,56,83,74,56,97,97,97,29.84,29.68,26,3,27,0.18
2013-4-19,60,52,44,60,52,44,97,97,97,30.13,29.84,20,3,22,0.06
2013-4-20,71,54,38,70,54,38,97,97,97,30.21,30.05,13,1,15,0.01
2013-4-21,75,59,43,74,58,42,97,97,97,30.17,30.03,12,0,12,0.00
2013-4-22,80,64,47,79,63,47,97,97,97,30.08,29.93,10,0,11,0.00
2013-4-23,85,72,63,84,72,62,97,97,97,30.00,29.87,13,1,15,0.00
2013-4-24,70,63,55,69,62,54,97,97,97,30.14,29.91,22,3,22,0.42
2013-4-25,71,60,51,70,59,50,97,97,97,30.26,30.14,14,2,16,0.00
2013-4-26,80,66,51,79,65,51,97,97,97,30.20,30.12,12,0,12,0.00
2013-4-27,83,73,64,82,72,63,97,97,97,30.12,29.95,16,1,16,0.00
2013-4-28,75,70,63,74,69,62,97,97,97,29.99,29.86,14,0,14,0.00
2013-4-29,84,69,56,83,68,55,97,97,97,29.91,29.80,6,0,6,0.01
2013-4-30,75,70,60,74,69,60,97,97,97,29.84,29.79,7,0,7,0.00